createdAt,value
2019-04-11T00:00:52.589Z,100277.92
2019-04-11T00:03:19.516Z,100281.90
2019-04-11T00:05:46.079Z,100275.53
2019-04-11T00:08:14.085Z,100281.28
2019-04-11T00:10:39.653Z,100273.89
2019-04-11T00:13:18.213Z,100277.77
2019-04-11T00:15:33.090Z,100275.89
2019-04-11T00:18:00.667Z,100285.86
2019-04-11T00:20:26.897Z,100275.70
2019-04-11T00:22:54.139Z,100286.41
2019-04-11T00:25:20.079Z,100278.95
2019-04-11T00:27:46.837Z,100285.56
2019-04-11T00:30:13.581Z,100284.03
2019-04-11T00:32:41.323Z,100286.14
2019-04-11T00:35:07.212Z,100292.32
2019-04-11T00:37:34.714Z,100295.36
2019-04-11T00:40:01.730Z,100295.95
2019-04-11T00:42:28.300Z,100294.30
2019-04-11T00:44:54.974Z,100298.95
2019-04-11T00:47:20.819Z,100293.67
2019-04-11T00:49:48.475Z,100298.13
2019-04-11T00:52:14.325Z,100298.46
2019-04-11T00:54:41.038Z,100295.00
2019-04-11T00:57:08.491Z,100293.98
2019-04-11T00:59:34.502Z,100297.31
2019-04-11T01:02:01.246Z,100296.20
2019-04-11T01:04:27.992Z,100298.28
2019-04-11T01:06:54.826Z,100297.81
2019-04-11T01:09:21.547Z,100293.59
2019-04-11T01:11:48.302Z,100292.61
2019-04-11T01:14:15.342Z,100297.77
2019-04-11T01:16:48.469Z,100297.98
2019-04-11T01:19:14.302Z,100301.27
2019-04-11T01:21:40.869Z,100296.47
2019-04-11T01:24:07.602Z,100293.35
2019-04-11T01:26:35.087Z,100295.19
2019-04-11T01:29:01.122Z,100295.52
2019-04-11T01:31:29.465Z,100303.24
2019-04-11T01:33:56.076Z,100300.67
2019-04-11T01:36:22.728Z,100313.98
2019-04-11T01:38:52.621Z,100303.69
2019-04-11T01:41:18.454Z,100306.50
2019-04-11T01:43:53.423Z,100320.54
2019-04-11T01:46:11.949Z,100315.85
2019-04-11T01:48:44.113Z,100314.56
2019-04-11T01:51:11.627Z,100315.22
2019-04-11T01:53:37.602Z,100308.63
2019-04-11T01:56:05.104Z,100315.76
2019-04-11T01:58:31.062Z,100316.34
2019-04-11T02:01:08.383Z,100324.45
2019-04-11T02:03:46.061Z,100319.63
2019-04-11T02:06:13.842Z,100323.50
2019-04-11T02:08:39.691Z,100325.03
2019-04-11T02:11:07.184Z,100325.50
2019-04-11T02:13:34.129Z,100327.82
2019-04-11T02:16:00.377Z,100319.88
2019-04-11T02:18:27.600Z,100319.88
2019-04-11T02:20:54.239Z,100331.17
2019-04-11T02:23:33.759Z,100328.63
2019-04-11T02:26:07.187Z,100324.17
2019-04-11T02:28:34.893Z,100328.40
2019-04-11T02:31:02.550Z,100328.09
2019-04-11T02:33:27.356Z,100336.33
2019-04-11T02:35:54.371Z,100329.05
2019-04-11T02:38:21.507Z,100335.78
2019-04-11T02:40:49.654Z,100337.09
2019-04-11T02:43:15.887Z,100339.34
2019-04-11T02:45:54.619Z,100341.13
2019-04-11T02:48:09.235Z,100340.12
2019-04-11T02:50:36.624Z,100344.64
2019-04-11T02:53:02.732Z,100341.59
2019-04-11T02:55:29.407Z,100346.48
2019-04-11T02:57:56.692Z,100341.28
2019-04-11T03:00:21.578Z,100346.59
2019-04-11T03:02:50.241Z,100347.34
2019-04-11T03:05:16.316Z,100343.09
2019-04-11T03:07:42.360Z,100349.73
2019-04-11T03:10:11.335Z,100350.39
2019-04-11T03:12:36.046Z,100355.64
2019-04-11T03:15:14.880Z,100352.81
2019-04-11T03:17:34.116Z,100354.11
2019-04-11T03:20:09.401Z,100361.41
2019-04-11T03:22:22.674Z,100355.81
2019-04-11T03:24:49.209Z,100357.92
2019-04-11T03:27:15.756Z,100360.95
2019-04-11T03:29:43.116Z,100371.44
2019-04-11T03:32:51.971Z,100375.13
2019-04-11T03:35:23.268Z,100370.09
2019-04-11T03:39:52.698Z,100372.34
2019-04-11T03:42:16.019Z,100368.38
2019-04-11T03:44:28.980Z,100373.09
2019-04-11T03:47:06.331Z,100370.69
2019-04-11T03:49:27.883Z,100375.47
2019-04-11T03:51:45.432Z,100374.18
2019-04-11T03:54:11.485Z,100377.67
2019-04-11T03:56:37.210Z,100376.97
2019-04-11T03:59:04.061Z,100378.33
2019-04-11T04:01:31.810Z,100374.20
2019-04-11T04:03:58.212Z,100376.77
2019-04-11T04:06:25.401Z,100390.08
2019-04-11T04:08:50.934Z,100393.37
2019-04-11T04:11:22.286Z,100393.92
2019-04-11T04:13:53.987Z,100392.93
2019-04-11T04:16:35.945Z,100398.45
2019-04-11T04:19:05.381Z,100398.24
2019-04-11T04:21:40.666Z,100395.88
2019-04-11T04:24:25.100Z,100400.63
2019-04-11T04:26:52.632Z,100393.58
2019-04-11T04:29:18.004Z,100398.98
2019-04-11T04:31:44.575Z,100412.28
2019-04-11T04:34:11.477Z,100414.84
2019-04-11T04:36:38.032Z,100418.61
2019-04-11T04:39:05.731Z,100417.16
2019-04-11T04:41:39.445Z,100416.50
2019-04-11T04:43:59.348Z,100419.98
2019-04-11T04:46:39.708Z,100418.06
2019-04-11T04:48:53.814Z,100418.44
2019-04-11T04:51:20.555Z,100430.17
2019-04-11T04:53:45.547Z,100422.93
2019-04-11T04:56:13.442Z,100430.92
2019-04-11T04:58:39.981Z,100422.47
2019-04-11T05:01:06.874Z,100421.93
2019-04-11T05:03:34.127Z,100432.75
2019-04-11T05:06:01.074Z,100439.72
2019-04-11T05:08:27.182Z,100437.69
2019-04-11T05:10:53.449Z,100442.29
2019-04-11T05:13:19.553Z,100434.88
2019-04-11T05:15:46.187Z,100437.60
2019-04-11T05:18:15.564Z,100438.98
2019-04-11T05:20:40.717Z,100449.54
2019-04-11T05:23:06.482Z,100451.17
2019-04-11T05:25:33.146Z,100450.29
2019-04-11T05:28:00.170Z,100456.50
2019-04-11T05:30:27.208Z,100461.64
2019-04-11T05:32:53.503Z,100466.78
2019-04-11T05:35:20.173Z,100460.27
2019-04-11T05:37:47.182Z,100465.05
2019-04-11T05:40:14.814Z,100472.64
2019-04-11T05:42:41.507Z,100474.23
2019-04-11T05:45:14.418Z,100473.01
2019-04-11T05:47:35.151Z,100472.13
2019-04-11T05:50:18.033Z,100482.48
2019-04-11T05:52:44.699Z,100474.86
2019-04-11T05:55:13.343Z,100469.88
2019-04-11T05:57:41.846Z,100479.55
2019-04-11T06:00:09.745Z,100491.08
2019-04-11T06:02:41.587Z,100490.21
2019-04-11T06:05:13.228Z,100481.39
2019-04-11T06:07:52.883Z,100487.63
2019-04-11T06:10:22.202Z,100482.19
2019-04-11T06:13:10.076Z,100488.58
2019-04-11T06:15:42.221Z,100493.01
2019-04-11T06:18:24.123Z,100500.27
2019-04-11T06:20:45.225Z,100506.09
2019-04-11T06:23:21.432Z,100494.02
2019-04-11T06:26:09.199Z,100492.74
2019-04-11T06:28:36.104Z,100492.64
2019-04-11T06:31:26.337Z,100493.16
2019-04-11T06:33:56.698Z,100495.84
2019-04-11T06:36:45.450Z,100493.12
2019-04-11T06:39:23.634Z,100492.80
2019-04-11T06:42:11.055Z,100494.80
2019-04-11T06:44:43.454Z,100494.02
2019-04-11T06:47:34.864Z,100501.44
2019-04-11T06:50:09.107Z,100500.05
2019-04-11T06:52:36.997Z,100492.55
2019-04-11T06:55:26.479Z,100494.27
2019-04-11T06:57:54.183Z,100498.30
2019-04-11T07:00:21.017Z,100491.77
2019-04-11T07:02:53.018Z,100499.20
2019-04-11T07:05:20.375Z,100496.68
2019-04-11T07:07:49.688Z,100490.29
2019-04-11T07:10:18.318Z,100500.27
2019-04-11T07:12:52.466Z,100500.69
2019-04-11T07:15:27.130Z,100494.50
2019-04-11T07:17:58.934Z,100493.68
2019-04-11T07:20:31.447Z,100496.82
2019-04-11T07:23:03.939Z,100491.50
2019-04-11T07:25:55.961Z,100492.00
2019-04-11T07:28:35.974Z,100489.73
2019-04-11T07:31:08.508Z,100494.98
2019-04-11T07:33:59.087Z,100499.71
2019-04-11T07:36:31.536Z,100492.89
2019-04-11T07:39:03.193Z,100505.58
2019-04-11T07:41:34.750Z,100489.48
2019-04-11T07:44:01.218Z,100491.59
2019-04-11T07:46:40.733Z,100487.13
2019-04-11T07:49:08.181Z,100485.94
2019-04-11T07:51:40.778Z,100495.09
2019-04-11T07:54:09.414Z,100485.34
2019-04-11T07:56:46.337Z,100494.02
2019-04-11T07:59:22.558Z,100493.93
2019-04-11T08:02:13.891Z,100480.19
2019-04-11T08:04:55.645Z,100495.65
2019-04-11T08:07:34.711Z,100491.02
2019-04-11T08:10:06.429Z,100490.83
2019-04-11T08:12:33.878Z,100482.83
2019-04-11T08:15:07.083Z,100481.23
2019-04-11T08:17:38.993Z,100475.28
2019-04-11T08:22:30.721Z,100477.98
2019-04-11T08:25:02.370Z,100474.65
2019-04-11T08:27:33.520Z,100475.16
2019-04-11T08:30:00.337Z,100481.19
2019-04-11T08:32:31.899Z,100469.73
2019-04-11T08:35:08.154Z,100468.48
2019-04-11T08:37:53.922Z,100464.39
2019-04-11T08:40:19.875Z,100456.68
2019-04-11T08:42:52.852Z,100465.89
2019-04-11T08:45:19.627Z,100465.62
2019-04-11T08:47:52.138Z,100462.61
2019-04-11T08:50:16.811Z,100445.39
2019-04-11T08:52:54.126Z,100447.43
2019-04-11T08:55:23.529Z,100462.57
2019-04-11T08:57:54.587Z,100454.92
2019-04-11T09:00:37.995Z,100459.64
2019-04-11T09:03:09.878Z,100448.31
2019-04-11T09:05:51.300Z,100446.06
2019-04-11T09:08:24.707Z,100444.90
2019-04-11T09:11:01.244Z,100446.55
2019-04-11T09:13:33.666Z,100450.61
2019-04-11T09:16:06.265Z,100447.81
2019-04-11T09:18:33.008Z,100438.31
2019-04-11T09:21:22.319Z,100444.17
2019-04-11T09:23:48.871Z,100443.88
2019-04-11T09:26:21.500Z,100427.98
2019-04-11T09:28:51.468Z,100442.72
2019-04-11T09:31:33.765Z,100431.66
2019-04-11T09:34:11.622Z,100426.28
2019-04-11T09:36:43.258Z,100426.05
2019-04-11T09:39:30.966Z,100419.78
2019-04-11T09:42:18.692Z,100435.64
2019-04-11T09:44:53.620Z,100425.84
2019-04-11T09:47:40.738Z,100428.05
2019-04-11T09:50:08.186Z,100429.23
2019-04-11T09:52:40.940Z,100411.81
2019-04-11T09:55:19.241Z,100422.92
2019-04-11T09:57:50.435Z,100438.20
2019-04-11T10:00:38.798Z,100426.80
2019-04-11T10:03:25.631Z,100434.23
2019-04-11T10:06:05.471Z,100427.64
2019-04-11T10:08:39.641Z,100418.64
2019-04-11T10:11:26.355Z,100422.98
2019-04-11T10:14:13.481Z,100413.52
2019-04-11T10:19:24.767Z,100427.23
2019-04-11T10:21:58.518Z,100417.00
2019-04-11T10:24:32.629Z,100413.63
2019-04-11T10:27:06.653Z,100422.17
2019-04-11T10:29:38.190Z,100424.44
2019-04-11T10:32:06.676Z,100428.86
2019-04-11T10:34:37.555Z,100429.03
2019-04-11T10:37:09.743Z,100424.54
2019-04-11T10:39:59.983Z,100417.76
2019-04-11T10:42:26.634Z,100432.77
2019-04-11T10:45:05.170Z,100421.86
2019-04-11T10:47:33.292Z,100415.37
2019-04-11T10:50:13.333Z,100420.09
2019-04-11T10:52:44.584Z,100430.64
2019-04-11T10:55:15.507Z,100422.70
2019-04-11T10:57:44.621Z,100432.58
2019-04-11T11:00:18.931Z,100432.09
2019-04-11T11:02:51.064Z,100429.70
2019-04-11T11:05:19.454Z,100426.95
2019-04-11T11:07:45.821Z,100427.06
2019-04-11T11:10:15.758Z,100413.63
2019-04-11T11:13:01.457Z,100423.52
2019-04-11T11:15:31.550Z,100416.19
2019-04-11T11:18:31.883Z,100413.97
2019-04-11T11:20:39.914Z,100418.28
2019-04-11T11:23:22.763Z,100419.00
2019-04-11T11:26:00.607Z,100424.16
2019-04-11T11:28:27.175Z,100438.30
2019-04-11T11:30:59.756Z,100432.39
2019-04-11T11:33:28.444Z,100438.91
2019-04-11T11:36:15.255Z,100427.91
2019-04-11T11:38:46.071Z,100421.52
2019-04-11T11:41:18.673Z,100443.84
2019-04-11T11:43:45.622Z,100434.25
2019-04-11T11:46:29.791Z,100435.94
2019-04-11T11:49:00.458Z,100428.25
2019-04-11T11:51:35.256Z,100421.60
2019-04-11T11:54:07.338Z,100430.75
2019-04-11T11:56:35.251Z,100422.44
2019-04-11T11:59:09.576Z,100426.05
2019-04-11T12:01:42.271Z,100427.66
2019-04-11T12:04:23.853Z,100411.78
2019-04-11T12:06:48.985Z,100429.61
2019-04-11T12:09:30.839Z,100434.13
2019-04-11T12:12:02.323Z,100418.84
2019-04-11T12:14:49.653Z,100434.92
2019-04-11T12:17:37.710Z,100430.96
2019-04-11T12:20:14.213Z,100412.34
2019-04-11T12:22:40.370Z,100420.22
2019-04-11T12:25:16.523Z,100428.63
2019-04-11T12:27:54.150Z,100429.06
2019-04-11T12:30:35.999Z,100428.91
2019-04-11T12:33:15.931Z,100424.06
2019-04-11T12:35:47.062Z,100429.86
2019-04-11T12:38:24.503Z,100418.78
2019-04-11T12:40:53.938Z,100411.89
2019-04-11T12:43:20.777Z,100415.11
2019-04-11T12:45:53.327Z,100424.73
2019-04-11T12:48:21.715Z,100403.61
2019-04-11T12:51:12.089Z,100411.59
2019-04-11T12:53:39.543Z,100409.16
2019-04-11T12:56:22.895Z,100406.47
2019-04-11T12:58:55.420Z,100410.08
2019-04-11T13:01:43.715Z,100415.84
2019-04-11T13:04:31.043Z,100411.11
2019-04-11T13:07:03.614Z,100396.02
2019-04-11T13:09:41.101Z,100396.41
2019-04-11T13:12:09.366Z,100409.97
2019-04-11T13:14:39.744Z,100399.23
2019-04-11T13:17:07.974Z,100405.68
2019-04-11T13:20:04.577Z,100401.90
2019-04-11T13:22:24.866Z,100388.19
2019-04-11T13:25:02.478Z,100383.92
2019-04-11T13:27:35.594Z,100386.16
2019-04-11T13:30:17.379Z,100386.98
2019-04-11T13:32:48.114Z,100385.02
2019-04-11T13:35:34.694Z,100373.80
2019-04-11T13:38:04.670Z,100380.33
2019-04-11T13:40:56.099Z,100372.27
2019-04-11T13:43:28.747Z,100377.02
2019-04-11T13:46:05.727Z,100377.39
2019-04-11T13:48:38.208Z,100382.98
2019-04-11T13:51:09.235Z,100378.79
2019-04-11T13:53:59.534Z,100384.23
2019-04-11T13:56:34.266Z,100376.19
2019-04-11T13:59:22.627Z,100375.48
2019-04-11T14:01:50.709Z,100386.13
2019-04-11T14:04:22.023Z,100368.16
2019-04-11T14:06:50.104Z,100361.47
2019-04-11T14:09:24.459Z,100361.44
2019-04-11T14:11:53.412Z,100354.91
2019-04-11T14:14:39.826Z,100352.25
2019-04-11T14:17:17.545Z,100361.05
2019-04-11T14:19:50.022Z,100355.43
2019-04-11T14:22:17.343Z,100349.11
2019-04-11T14:24:57.095Z,100356.41
2019-04-11T14:27:24.984Z,100359.25
2019-04-11T14:30:16.343Z,100349.78
2019-04-11T14:32:44.854Z,100358.75
2019-04-11T14:35:31.087Z,100352.78
2019-04-11T14:38:06.502Z,100356.38
2019-04-11T14:41:01.879Z,100367.67
2019-04-11T14:43:27.682Z,100364.90
2019-04-11T14:46:15.986Z,100351.67
2019-04-11T14:48:44.774Z,100352.81
2019-04-11T14:51:31.958Z,100361.51
2019-04-11T14:54:08.615Z,100356.09
2019-04-11T14:56:37.226Z,100365.64
2019-04-11T14:59:26.074Z,100359.58
2019-04-11T15:01:57.663Z,100369.14
2019-04-11T15:04:50.003Z,100363.75
2019-04-11T15:07:16.982Z,100362.81
2019-04-11T15:09:54.226Z,100352.73
2019-04-11T15:12:23.223Z,100356.86
2019-04-11T15:15:15.486Z,100362.25
2019-04-11T15:17:42.414Z,100364.72
2019-04-11T15:20:33.824Z,100360.53
2019-04-11T15:23:02.106Z,100372.66
2019-04-11T15:25:47.374Z,100361.43
2019-04-11T15:28:19.995Z,100364.81
2019-04-11T15:30:49.496Z,100361.76
2019-04-11T15:33:40.587Z,100370.59
2019-04-11T15:36:07.452Z,100364.57
2019-04-11T15:38:48.295Z,100369.96
2019-04-11T15:41:15.114Z,100367.44
2019-04-11T15:43:47.582Z,100366.11
2019-04-11T15:46:18.194Z,100377.28
2019-04-11T15:49:05.429Z,100378.09
2019-04-11T15:51:36.452Z,100362.14
2019-04-11T15:54:25.900Z,100361.39
2019-04-11T15:56:59.847Z,100374.59
2019-04-11T15:59:32.274Z,100358.20
2019-04-11T16:02:04.942Z,100370.23
2019-04-11T16:04:48.000Z,100370.27
2019-04-11T16:07:37.748Z,100366.98
2019-04-11T16:10:04.174Z,100375.56
2019-04-11T16:12:39.524Z,100369.35
2019-04-11T16:15:09.534Z,100382.48
2019-04-11T16:18:00.970Z,100378.89
2019-04-11T16:20:27.811Z,100361.63
2019-04-11T16:23:09.031Z,100376.53
2019-04-11T16:25:35.846Z,100375.45
2019-04-11T16:28:08.580Z,100374.41
2019-04-11T16:30:39.786Z,100385.94
2019-04-11T16:33:22.079Z,100371.42
2019-04-11T16:35:57.255Z,100382.28
2019-04-11T16:38:23.242Z,100389.47
2019-04-11T16:41:14.522Z,100381.45
2019-04-11T16:43:42.710Z,100383.48
2019-04-11T16:46:15.363Z,100394.17
2019-04-11T16:48:42.180Z,100393.78
2019-04-11T16:51:09.043Z,100399.05
2019-04-11T16:53:35.871Z,100408.12
2019-04-11T16:56:02.933Z,100395.19
2019-04-11T16:58:30.687Z,100409.82
2019-04-11T17:00:57.487Z,100401.24
2019-04-11T17:03:25.157Z,100409.86
2019-04-11T17:05:58.018Z,100420.76
2019-04-11T17:08:36.054Z,100407.36
2019-04-11T17:11:10.767Z,100423.52
2019-04-11T17:13:37.580Z,100428.68
2019-04-11T17:16:05.710Z,100436.72
2019-04-11T17:18:34.338Z,100427.37
2019-04-11T17:20:59.375Z,100425.29
2019-04-11T17:23:26.203Z,100426.63
2019-04-11T17:25:53.679Z,100435.98
2019-04-11T17:28:22.643Z,100442.08
2019-04-11T17:30:46.799Z,100437.78
2019-04-11T17:33:13.663Z,100451.63
2019-04-11T17:35:40.501Z,100449.61
2019-04-11T17:38:08.130Z,100452.83
2019-04-11T17:40:35.061Z,100454.96
2019-04-11T17:43:01.072Z,100459.77
2019-04-11T17:45:27.874Z,100461.02
2019-04-11T17:47:54.787Z,100470.45
2019-04-11T17:50:21.510Z,100474.35
2019-04-11T17:52:48.351Z,100477.08
2019-04-11T17:55:15.159Z,100477.20
2019-04-11T17:57:41.979Z,100481.34
2019-04-11T18:00:10.687Z,100486.46
2019-04-11T18:02:38.992Z,100492.75
2019-04-11T18:05:04.385Z,100493.20
2019-04-11T18:07:31.243Z,100508.23
2019-04-11T18:09:58.054Z,100499.97
2019-04-11T18:12:26.236Z,100515.58
2019-04-11T18:14:51.722Z,100518.53
2019-04-11T18:17:18.540Z,100512.05
2019-04-11T18:19:45.334Z,100530.19
2019-04-11T18:22:13.715Z,100523.10
2019-04-11T18:24:38.964Z,100535.15
2019-04-11T18:27:05.774Z,100533.50
2019-04-11T18:29:32.594Z,100540.07
2019-04-11T18:31:59.399Z,100537.70
2019-04-11T18:34:26.215Z,100548.02
2019-04-11T18:36:53.021Z,100560.43
2019-04-11T18:39:19.829Z,100566.73
2019-04-11T18:41:46.634Z,100567.48
2019-04-11T18:44:13.474Z,100572.98
2019-04-11T18:46:40.299Z,100581.84
2019-04-11T18:49:07.119Z,100578.72
2019-04-11T18:51:33.934Z,100585.77
2019-04-11T18:54:00.816Z,100585.59
2019-04-11T18:56:27.640Z,100594.94
2019-04-11T18:58:54.433Z,100598.00
2019-04-11T19:01:21.242Z,100596.36
2019-04-11T19:03:48.051Z,100599.58
2019-04-11T19:06:14.867Z,100603.09
2019-04-11T19:08:43.485Z,100612.98
2019-04-11T19:11:08.487Z,100614.64
2019-04-11T19:13:35.302Z,100617.84
2019-04-11T19:16:02.114Z,100621.73
2019-04-11T19:18:28.934Z,100620.77
2019-04-11T19:20:55.742Z,100624.52
2019-04-11T19:23:22.557Z,100629.70
2019-04-11T19:25:49.462Z,100626.02
2019-04-11T19:28:16.275Z,100637.28
2019-04-11T19:30:43.331Z,100633.28
2019-04-11T19:33:10.143Z,100631.20
2019-04-11T19:35:41.321Z,100635.05
2019-04-11T19:38:04.663Z,100637.28
2019-04-11T19:40:31.582Z,100632.30
2019-04-11T19:42:58.402Z,100632.22
2019-04-11T19:45:25.211Z,100636.05
2019-04-11T19:47:52.807Z,100634.29
2019-04-11T19:50:18.855Z,100635.81
2019-04-11T19:52:46.029Z,100634.76
2019-04-11T19:55:18.170Z,100633.83
2019-04-11T19:57:44.982Z,100623.87
2019-04-11T20:00:12.262Z,100623.16
2019-04-11T20:02:39.063Z,100628.06
2019-04-11T20:05:05.874Z,100629.12
2019-04-11T20:07:32.871Z,100629.83
2019-04-11T20:10:00.886Z,100628.72
2019-04-11T20:12:27.781Z,100635.47
2019-04-11T20:14:53.602Z,100628.45
2019-04-11T20:17:20.428Z,100632.27
2019-04-11T20:19:47.241Z,100636.67
2019-04-11T20:22:14.050Z,100636.14
2019-04-11T20:24:45.934Z,100639.42
2019-04-11T20:27:08.078Z,100638.07
2019-04-11T20:29:35.030Z,100641.49
2019-04-11T20:32:01.847Z,100635.20
2019-04-11T20:34:28.650Z,100636.27
2019-04-11T20:36:55.497Z,100633.78
2019-04-11T20:39:22.297Z,100628.16
2019-04-11T20:41:53.169Z,100631.69
2019-04-11T20:44:15.951Z,100638.14
2019-04-11T20:46:42.763Z,100642.30
2019-04-11T20:49:09.596Z,100645.11
2019-04-11T20:51:36.468Z,100647.03
2019-04-11T20:54:06.956Z,100648.46
2019-04-11T20:56:30.103Z,100653.73
2019-04-11T20:58:56.913Z,100659.84
2019-04-11T21:01:26.173Z,100651.16
2019-04-11T21:03:50.809Z,100653.75
2019-04-11T21:06:17.619Z,100659.70
2019-04-11T21:08:44.438Z,100667.34
2019-04-11T21:11:11.234Z,100673.19
2019-04-11T21:13:38.485Z,100668.73
2019-04-11T21:16:04.850Z,100667.66
2019-04-11T21:18:31.664Z,100671.76
2019-04-11T21:20:58.875Z,100670.61
2019-04-11T21:23:29.510Z,100668.78
2019-04-11T21:25:52.502Z,100669.78
2019-04-11T21:28:19.386Z,100679.82
2019-04-11T21:30:46.186Z,100676.91
2019-04-11T21:33:13.035Z,100685.47
2019-04-11T21:35:39.793Z,100689.03
2019-04-11T21:38:06.590Z,100694.27
2019-04-11T21:40:35.623Z,100695.69
2019-04-11T21:43:00.235Z,100701.25
2019-04-11T21:45:27.039Z,100708.31
2019-04-11T21:47:53.998Z,100712.97
2019-04-11T21:50:20.798Z,100707.70
2019-04-11T21:52:47.610Z,100714.31
2019-04-11T21:55:16.106Z,100712.19
2019-04-11T21:57:41.222Z,100720.86
2019-04-11T22:00:12.952Z,100723.62
2019-04-11T22:02:39.750Z,100718.16
2019-04-11T22:05:06.562Z,100703.08
2019-04-11T22:07:33.375Z,100701.14
2019-04-11T22:10:00.192Z,100708.95
2019-04-11T22:12:26.998Z,100706.75
2019-04-11T22:14:53.798Z,100720.78
2019-04-11T22:17:20.641Z,100724.55
2019-04-11T22:19:47.444Z,100725.13
2019-04-11T22:22:14.247Z,100730.84
2019-04-11T22:24:41.059Z,100731.22
2019-04-11T22:27:07.874Z,100733.31
2019-04-11T22:29:34.674Z,100739.55
2019-04-11T22:32:01.488Z,100739.48
2019-04-11T22:34:34.826Z,100738.83
2019-04-11T22:37:01.631Z,100727.95
2019-04-11T22:39:28.953Z,100719.86
2019-04-11T22:41:55.399Z,100723.78
2019-04-11T22:44:22.242Z,100713.33
2019-04-11T22:46:48.995Z,100713.80
2019-04-11T22:49:15.815Z,100720.25
2019-04-11T22:51:43.498Z,100717.72
2019-04-11T22:54:12.991Z,100726.09
2019-04-11T22:56:36.006Z,100721.30
2019-04-11T22:59:02.726Z,100722.76
2019-04-11T23:01:29.470Z,100729.31
2019-04-11T23:03:58.742Z,100736.42
2019-04-11T23:06:25.488Z,100736.27
2019-04-11T23:08:52.202Z,100742.50
2019-04-11T23:11:18.943Z,100748.63
2019-04-11T23:13:46.273Z,100743.38
2019-04-11T23:16:14.397Z,100746.14
2019-04-11T23:18:39.134Z,100743.11
2019-04-11T23:21:05.874Z,100751.11
2019-04-11T23:23:32.605Z,100751.38
2019-04-11T23:25:59.354Z,100745.61
2019-04-11T23:28:26.087Z,100752.68
2019-04-11T23:30:52.838Z,100756.83
2019-04-11T23:33:21.412Z,100756.45
2019-04-11T23:35:46.330Z,100757.55
2019-04-11T23:38:13.050Z,100759.13
2019-04-11T23:40:39.797Z,100762.61
2019-04-11T23:43:06.585Z,100761.06
2019-04-11T23:45:33.317Z,100748.66
2019-04-11T23:48:00.179Z,100766.00
2019-04-11T23:50:26.922Z,100758.84
2019-04-11T23:52:56.986Z,100757.92
2019-04-11T23:55:20.377Z,100760.13
2019-04-11T23:57:47.109Z,100753.50
